sensor_id;sensor_type;location;lat;lon;timestamp;P1;durP1;ratioP1;P2;durP2;ratioP2
81351;SDS011;70809;52.184;13.422;2023-11-21T00:00:35;13.70;;;5.93;;
81351;SDS011;70809;52.184;13.422;2023-11-21T00:01:37;14.27;;;5.22;;
81351;SDS011;70809;52.184;13.422;2023-11-21T00:02:39;12.20;;;5.40;;
81351;SDS011;70809;52.184;13.422;2023-11-21T00:03:41;15.98;;;5.75;;
81351;SDS011;70809;52.184;13.422;2023-11-21T00:04:44;15.20;;;5.95;;
81351;SDS011;70809;52.184;13.422;2023-11-21T00:05:46;15.75;;;5.18;;
81351;SDS011;70809;52.184;13.422;2023-11-21T00:06:48;15.57;;;5.68;;
81351;SDS011;70809;52.184;13.422;2023-11-21T00:07:50;19.13;;;6.30;;
81351;SDS011;70809;52.184;13.422;2023-11-21T00:08:52;14.98;;;6.28;;
81351;SDS011;70809;52.184;13.422;2023-11-21T00:09:53;18.08;;;6.00;;
81351;SDS011;70809;52.184;13.422;2023-11-21T00:10:55;15.75;;;6.00;;
81351;SDS011;70809;52.184;13.422;2023-11-21T00:11:57;16.88;;;6.10;;
81351;SDS011;70809;52.184;13.422;2023-11-21T00:12:59;12.35;;;5.63;;
81351;SDS011;70809;52.184;13.422;2023-11-21T00:14:01;12.82;;;6.05;;
81351;SDS011;70809;52.184;13.422;2023-11-21T00:15:03;16.65;;;6.07;;
81351;SDS011;70809;52.184;13.422;2023-11-21T00:16:05;16.23;;;6.88;;
81351;SDS011;70809;52.184;13.422;2023-11-21T00:17:08;21.05;;;6.70;;
81351;SDS011;70809;52.184;13.422;2023-11-21T00:18:10;18.33;;;6.88;;
81351;SDS011;70809;52.184;13.422;2023-11-21T00:19:12;13.43;;;5.20;;
81351;SDS011;70809;52.184;13.422;2023-11-21T00:20:15;19.38;;;5.90;;
81351;SDS011;70809;52.184;13.422;2023-11-21T00:21:17;13.10;;;5.40;;
81351;SDS011;70809;52.184;13.422;2023-11-21T00:22:19;17.17;;;6.18;;
81351;SDS011;70809;52.184;13.422;2023-11-21T00:23:21;17.58;;;6.78;;
81351;SDS011;70809;52.184;13.422;2023-11-21T00:24:27;16.00;;;6.10;;
81351;SDS011;70809;52.184;13.422;2023-11-21T00:25:29;19.95;;;6.53;;
81351;SDS011;70809;52.184;13.422;2023-11-21T00:26:31;16.00;;;6.05;;
81351;SDS011;70809;52.184;13.422;2023-11-21T00:27:35;13.48;;;6.03;;
81351;SDS011;70809;52.184;13.422;2023-11-21T00:28:37;13.65;;;6.32;;
81351;SDS011;70809;52.184;13.422;2023-11-21T00:29:39;10.57;;;5.70;;
81351;SDS011;70809;52.184;13.422;2023-11-21T00:30:41;21.52;;;7.80;;
81351;SDS011;70809;52.184;13.422;2023-11-21T00:31:43;19.17;;;7.20;;
81351;SDS011;70809;52.184;13.422;2023-11-21T00:32:46;18.50;;;6.18;;
81351;SDS011;70809;52.184;13.422;2023-11-21T00:33:48;19.27;;;6.03;;
81351;SDS011;70809;52.184;13.422;2023-11-21T00:34:50;15.98;;;6.03;;
81351;SDS011;70809;52.184;13.422;2023-11-21T00:35:53;15.75;;;6.20;;
81351;SDS011;70809;52.184;13.422;2023-11-21T00:36:57;18.45;;;6.13;;
81351;SDS011;70809;52.184;13.422;2023-11-21T00:37:59;11.80;;;5.85;;
81351;SDS011;70809;52.184;13.422;2023-11-21T00:39:00;16.27;;;6.53;;
81351;SDS011;70809;52.184;13.422;2023-11-21T00:40:03;16.75;;;5.80;;
81351;SDS011;70809;52.184;13.422;2023-11-21T00:41:06;14.85;;;6.10;;
81351;SDS011;70809;52.184;13.422;2023-11-21T00:42:07;15.70;;;6.45;;
81351;SDS011;70809;52.184;13.422;2023-11-21T00:43:10;16.08;;;5.43;;
81351;SDS011;70809;52.184;13.422;2023-11-21T00:44:12;19.15;;;6.22;;
81351;SDS011;70809;52.184;13.422;2023-11-21T00:45:14;12.55;;;6.30;;
81351;SDS011;70809;52.184;13.422;2023-11-21T00:46:16;13.68;;;5.78;;
81351;SDS011;70809;52.184;13.422;2023-11-21T00:47:18;17.15;;;5.93;;
81351;SDS011;70809;52.184;13.422;2023-11-21T00:48:20;18.17;;;6.00;;
81351;SDS011;70809;52.184;13.422;2023-11-21T00:49:22;16.75;;;6.50;;
81351;SDS011;70809;52.184;13.422;2023-11-21T00:50:23;16.67;;;6.18;;
81351;SDS011;70809;52.184;13.422;2023-11-21T00:51:26;14.77;;;6.03;;
81351;SDS011;70809;52.184;13.422;2023-11-21T00:52:28;12.80;;;5.65;;
81351;SDS011;70809;52.184;13.422;2023-11-21T00:53:31;11.23;;;6.00;;
81351;SDS011;70809;52.184;13.422;2023-11-21T00:54:33;15.38;;;5.63;;
81351;SDS011;70809;52.184;13.422;2023-11-21T00:55:36;12.25;;;5.97;;
81351;SDS011;70809;52.184;13.422;2023-11-21T00:56:38;14.18;;;5.72;;
81351;SDS011;70809;52.184;13.422;2023-11-21T00:57:39;13.85;;;5.57;;
81351;SDS011;70809;52.184;13.422;2023-11-21T00:58:41;18.60;;;5.53;;
81351;SDS011;70809;52.184;13.422;2023-11-21T00:59:43;15.70;;;6.03;;
81351;SDS011;70809;52.184;13.422;2023-11-21T01:00:45;18.52;;;6.38;;
81351;SDS011;70809;52.184;13.422;2023-11-21T01:01:47;15.65;;;6.57;;
81351;SDS011;70809;52.184;13.422;2023-11-21T01:02:49;15.52;;;6.07;;
81351;SDS011;70809;52.184;13.422;2023-11-21T01:03:51;15.50;;;5.72;;
81351;SDS011;70809;52.184;13.422;2023-11-21T01:04:53;14.48;;;5.13;;
81351;SDS011;70809;52.184;13.422;2023-11-21T01:05:55;16.00;;;6.60;;
81351;SDS011;70809;52.184;13.422;2023-11-21T01:07:01;16.92;;;5.50;;
81351;SDS011;70809;52.184;13.422;2023-11-21T01:08:04;17.98;;;6.30;;
81351;SDS011;70809;52.184;13.422;2023-11-21T01:09:06;16.13;;;6.38;;
81351;SDS011;70809;52.184;13.422;2023-11-21T01:10:08;14.40;;;5.65;;
81351;SDS011;70809;52.184;13.422;2023-11-21T01:11:10;15.30;;;6.32;;
81351;SDS011;70809;52.184;13.422;2023-11-21T01:12:12;12.38;;;5.10;;
81351;SDS011;70809;52.184;13.422;2023-11-21T01:13:14;12.43;;;5.50;;
81351;SDS011;70809;52.184;13.422;2023-11-21T01:14:16;16.40;;;6.18;;
81351;SDS011;70809;52.184;13.422;2023-11-21T01:15:18;14.68;;;4.80;;
81351;SDS011;70809;52.184;13.422;2023-11-21T01:16:21;13.15;;;5.72;;
81351;SDS011;70809;52.184;13.422;2023-11-21T01:17:25;13.27;;;6.13;;
81351;SDS011;70809;52.184;13.422;2023-11-21T01:18:27;15.30;;;5.35;;
81351;SDS011;70809;52.184;13.422;2023-11-21T01:19:29;12.85;;;5.18;;
81351;SDS011;70809;52.184;13.422;2023-11-21T01:20:31;17.38;;;6.30;;
81351;SDS011;70809;52.184;13.422;2023-11-21T01:21:33;11.55;;;5.10;;
81351;SDS011;70809;52.184;13.422;2023-11-21T01:22:36;12.65;;;5.43;;
81351;SDS011;70809;52.184;13.422;2023-11-21T01:23:38;11.85;;;5.25;;
81351;SDS011;70809;52.184;13.422;2023-11-21T01:24:40;12.35;;;6.35;;
81351;SDS011;70809;52.184;13.422;2023-11-21T01:25:42;12.85;;;5.55;;
81351;SDS011;70809;52.184;13.422;2023-11-21T01:26:44;12.15;;;5.35;;
81351;SDS011;70809;52.184;13.422;2023-11-21T01:27:45;15.48;;;6.15;;
81351;SDS011;70809;52.184;13.422;2023-11-21T01:28:47;11.93;;;5.40;;
81351;SDS011;70809;52.184;13.422;2023-11-21T01:29:49;12.10;;;5.15;;
81351;SDS011;70809;52.184;13.422;2023-11-21T01:30:51;13.90;;;5.10;;
81351;SDS011;70809;52.184;13.422;2023-11-21T01:31:53;12.18;;;5.28;;
81351;SDS011;70809;52.184;13.422;2023-11-21T01:32:56;16.83;;;7.15;;
81351;SDS011;70809;52.184;13.422;2023-11-21T01:33:58;10.68;;;4.78;;
81351;SDS011;70809;52.184;13.422;2023-11-21T01:35:00;10.25;;;5.00;;
81351;SDS011;70809;52.184;13.422;2023-11-21T01:36:02;14.13;;;5.65;;
81351;SDS011;70809;52.184;13.422;2023-11-21T01:37:05;12.00;;;5.32;;
81351;SDS011;70809;52.184;13.422;2023-11-21T01:38:08;14.30;;;5.65;;
81351;SDS011;70809;52.184;13.422;2023-11-21T01:39:10;14.57;;;6.35;;
81351;SDS011;70809;52.184;13.422;2023-11-21T01:40:11;12.45;;;5.07;;
81351;SDS011;70809;52.184;13.422;2023-11-21T01:41:14;10.20;;;4.50;;
81351;SDS011;70809;52.184;13.422;2023-11-21T01:42:15;11.18;;;4.90;;
81351;SDS011;70809;52.184;13.422;2023-11-21T01:43:17;13.85;;;5.05;;
81351;SDS011;70809;52.184;13.422;2023-11-21T01:44:19;12.27;;;5.40;;
81351;SDS011;70809;52.184;13.422;2023-11-21T01:45:21;13.88;;;5.10;;
81351;SDS011;70809;52.184;13.422;2023-11-21T01:46:23;9.85;;;5.00;;
81351;SDS011;70809;52.184;13.422;2023-11-21T01:47:25;12.48;;;4.70;;
81351;SDS011;70809;52.184;13.422;2023-11-21T01:48:27;11.15;;;4.22;;
81351;SDS011;70809;52.184;13.422;2023-11-21T01:49:29;8.77;;;4.15;;
81351;SDS011;70809;52.184;13.422;2023-11-21T01:50:31;9.18;;;4.07;;
81351;SDS011;70809;52.184;13.422;2023-11-21T01:51:34;8.35;;;3.40;;
81351;SDS011;70809;52.184;13.422;2023-11-21T01:52:36;7.07;;;3.22;;
81351;SDS011;70809;52.184;13.422;2023-11-21T01:53:40;5.43;;;2.92;;
81351;SDS011;70809;52.184;13.422;2023-11-21T01:54:43;5.35;;;2.83;;
81351;SDS011;70809;52.184;13.422;2023-11-21T01:55:45;4.63;;;2.90;;
81351;SDS011;70809;52.184;13.422;2023-11-21T01:56:48;10.48;;;3.60;;
81351;SDS011;70809;52.184;13.422;2023-11-21T01:57:50;10.18;;;3.05;;
81351;SDS011;70809;52.184;13.422;2023-11-21T01:58:52;8.73;;;3.72;;
81351;SDS011;70809;52.184;13.422;2023-11-21T01:59:54;10.27;;;3.80;;
81351;SDS011;70809;52.184;13.422;2023-11-21T02:00:56;8.25;;;3.85;;
81351;SDS011;70809;52.184;13.422;2023-11-21T02:01:58;7.38;;;3.28;;
81351;SDS011;70809;52.184;13.422;2023-11-21T02:03:00;6.28;;;3.47;;
81351;SDS011;70809;52.184;13.422;2023-11-21T02:04:02;7.88;;;4.13;;
81351;SDS011;70809;52.184;13.422;2023-11-21T02:05:04;10.77;;;4.50;;
81351;SDS011;70809;52.184;13.422;2023-11-21T02:06:07;11.13;;;5.25;;
81351;SDS011;70809;52.184;13.422;2023-11-21T02:07:09;12.05;;;5.25;;
81351;SDS011;70809;52.184;13.422;2023-11-21T02:08:11;14.50;;;6.13;;
81351;SDS011;70809;52.184;13.422;2023-11-21T02:09:14;17.83;;;7.45;;
81351;SDS011;70809;52.184;13.422;2023-11-21T02:10:16;17.13;;;7.47;;
81351;SDS011;70809;52.184;13.422;2023-11-21T02:11:18;17.00;;;7.82;;
81351;SDS011;70809;52.184;13.422;2023-11-21T02:12:21;19.20;;;8.18;;
81351;SDS011;70809;52.184;13.422;2023-11-21T02:13:22;19.85;;;7.40;;
81351;SDS011;70809;52.184;13.422;2023-11-21T02:14:24;22.95;;;8.85;;
81351;SDS011;70809;52.184;13.422;2023-11-21T02:15:27;22.25;;;8.45;;
81351;SDS011;70809;52.184;13.422;2023-11-21T02:16:28;21.25;;;8.82;;
81351;SDS011;70809;52.184;13.422;2023-11-21T02:17:31;22.00;;;8.93;;
81351;SDS011;70809;52.184;13.422;2023-11-21T02:18:35;23.45;;;9.35;;
81351;SDS011;70809;52.184;13.422;2023-11-21T02:19:38;21.83;;;8.50;;
81351;SDS011;70809;52.184;13.422;2023-11-21T02:20:40;30.23;;;9.75;;
81351;SDS011;70809;52.184;13.422;2023-11-21T02:21:41;26.55;;;9.43;;
81351;SDS011;70809;52.184;13.422;2023-11-21T02:22:48;28.48;;;9.63;;
81351;SDS011;70809;52.184;13.422;2023-11-21T02:23:51;23.13;;;9.23;;
81351;SDS011;70809;52.184;13.422;2023-11-21T02:24:55;23.63;;;8.80;;
81351;SDS011;70809;52.184;13.422;2023-11-21T02:25:57;27.27;;;9.65;;
81351;SDS011;70809;52.184;13.422;2023-11-21T02:26:59;27.95;;;9.85;;
81351;SDS011;70809;52.184;13.422;2023-11-21T02:28:01;28.27;;;9.73;;
81351;SDS011;70809;52.184;13.422;2023-11-21T02:29:04;27.80;;;10.20;;
81351;SDS011;70809;52.184;13.422;2023-11-21T02:30:06;25.45;;;10.35;;
81351;SDS011;70809;52.184;13.422;2023-11-21T02:31:09;23.27;;;9.35;;
81351;SDS011;70809;52.184;13.422;2023-11-21T02:32:11;24.65;;;9.23;;
81351;SDS011;70809;52.184;13.422;2023-11-21T02:33:13;26.38;;;9.95;;
81351;SDS011;70809;52.184;13.422;2023-11-21T02:34:15;27.65;;;9.88;;
81351;SDS011;70809;52.184;13.422;2023-11-21T02:35:17;22.98;;;9.45;;
81351;SDS011;70809;52.184;13.422;2023-11-21T02:36:19;23.27;;;9.38;;
81351;SDS011;70809;52.184;13.422;2023-11-21T02:37:21;28.35;;;10.07;;
81351;SDS011;70809;52.184;13.422;2023-11-21T02:38:24;26.27;;;9.93;;
81351;SDS011;70809;52.184;13.422;2023-11-21T02:39:26;23.83;;;9.02;;
81351;SDS011;70809;52.184;13.422;2023-11-21T02:40:28;30.80;;;10.35;;
81351;SDS011;70809;52.184;13.422;2023-11-21T02:41:30;34.63;;;10.73;;
81351;SDS011;70809;52.184;13.422;2023-11-21T02:42:33;32.75;;;10.60;;
81351;SDS011;70809;52.184;13.422;2023-11-21T02:43:35;28.75;;;10.52;;
81351;SDS011;70809;52.184;13.422;2023-11-21T02:44:36;29.30;;;10.38;;
81351;SDS011;70809;52.184;13.422;2023-11-21T02:45:38;35.17;;;10.77;;
81351;SDS011;70809;52.184;13.422;2023-11-21T02:46:40;35.08;;;11.50;;
81351;SDS011;70809;52.184;13.422;2023-11-21T02:47:42;27.45;;;11.50;;
81351;SDS011;70809;52.184;13.422;2023-11-21T02:48:45;33.55;;;11.43;;
81351;SDS011;70809;52.184;13.422;2023-11-21T02:49:46;30.83;;;11.25;;
81351;SDS011;70809;52.184;13.422;2023-11-21T02:50:48;42.08;;;12.75;;
81351;SDS011;70809;52.184;13.422;2023-11-21T02:51:50;28.80;;;10.82;;
81351;SDS011;70809;52.184;13.422;2023-11-21T02:52:52;37.20;;;12.20;;
81351;SDS011;70809;52.184;13.422;2023-11-21T02:53:56;32.75;;;12.18;;
81351;SDS011;70809;52.184;13.422;2023-11-21T02:54:57;38.85;;;13.10;;
81351;SDS011;70809;52.184;13.422;2023-11-21T02:56:00;39.65;;;13.75;;
81351;SDS011;70809;52.184;13.422;2023-11-21T02:57:02;37.92;;;12.27;;
81351;SDS011;70809;52.184;13.422;2023-11-21T02:58:04;35.55;;;12.25;;
81351;SDS011;70809;52.184;13.422;2023-11-21T02:59:06;37.15;;;12.50;;
81351;SDS011;70809;52.184;13.422;2023-11-21T03:00:08;36.85;;;12.25;;
81351;SDS011;70809;52.184;13.422;2023-11-21T03:01:10;37.80;;;12.73;;
81351;SDS011;70809;52.184;13.422;2023-11-21T03:02:12;28.35;;;12.20;;
81351;SDS011;70809;52.184;13.422;2023-11-21T03:03:14;33.35;;;11.88;;
81351;SDS011;70809;52.184;13.422;2023-11-21T03:04:16;39.22;;;13.10;;
81351;SDS011;70809;52.184;13.422;2023-11-21T03:05:18;41.95;;;13.30;;
81351;SDS011;70809;52.184;13.422;2023-11-21T03:06:20;37.13;;;12.32;;
81351;SDS011;70809;52.184;13.422;2023-11-21T03:07:23;33.60;;;11.63;;
81351;SDS011;70809;52.184;13.422;2023-11-21T03:08:25;36.05;;;12.57;;
81351;SDS011;70809;52.184;13.422;2023-11-21T03:09:28;37.05;;;13.43;;
81351;SDS011;70809;52.184;13.422;2023-11-21T03:10:30;39.25;;;13.02;;
81351;SDS011;70809;52.184;13.422;2023-11-21T03:11:35;38.67;;;14.00;;
81351;SDS011;70809;52.184;13.422;2023-11-21T03:12:37;38.58;;;13.38;;
81351;SDS011;70809;52.184;13.422;2023-11-21T03:13:39;36.20;;;12.05;;
81351;SDS011;70809;52.184;13.422;2023-11-21T03:14:44;47.13;;;13.10;;
81351;SDS011;70809;52.184;13.422;2023-11-21T03:15:46;40.40;;;12.27;;
81351;SDS011;70809;52.184;13.422;2023-11-21T03:16:48;47.83;;;14.52;;
81351;SDS011;70809;52.184;13.422;2023-11-21T03:17:50;44.80;;;13.23;;
81351;SDS011;70809;52.184;13.422;2023-11-21T03:18:52;35.30;;;12.50;;
81351;SDS011;70809;52.184;13.422;2023-11-21T03:19:54;34.05;;;11.88;;
81351;SDS011;70809;52.184;13.422;2023-11-21T03:20:56;38.22;;;12.38;;
81351;SDS011;70809;52.184;13.422;2023-11-21T03:21:57;33.88;;;11.63;;
81351;SDS011;70809;52.184;13.422;2023-11-21T03:22:59;36.22;;;13.45;;
81351;SDS011;70809;52.184;13.422;2023-11-21T03:24:01;36.83;;;12.48;;
81351;SDS011;70809;52.184;13.422;2023-11-21T03:25:05;24.10;;;10.02;;
81351;SDS011;70809;52.184;13.422;2023-11-21T03:26:11;34.17;;;12.25;;
81351;SDS011;70809;52.184;13.422;2023-11-21T03:27:13;40.25;;;12.20;;
81351;SDS011;70809;52.184;13.422;2023-11-21T03:28:15;38.33;;;11.30;;
81351;SDS011;70809;52.184;13.422;2023-11-21T03:29:19;32.70;;;11.50;;
81351;SDS011;70809;52.184;13.422;2023-11-21T03:30:21;27.98;;;11.27;;
81351;SDS011;70809;52.184;13.422;2023-11-21T03:31:23;34.85;;;12.48;;
81351;SDS011;70809;52.184;13.422;2023-11-21T03:32:25;29.80;;;11.18;;
81351;SDS011;70809;52.184;13.422;2023-11-21T03:33:27;35.20;;;10.90;;
81351;SDS011;70809;52.184;13.422;2023-11-21T03:34:29;38.30;;;12.32;;
81351;SDS011;70809;52.184;13.422;2023-11-21T03:35:31;39.72;;;12.07;;
81351;SDS011;70809;52.184;13.422;2023-11-21T03:36:33;37.10;;;13.23;;
81351;SDS011;70809;52.184;13.422;2023-11-21T03:37:34;29.70;;;11.35;;
81351;SDS011;70809;52.184;13.422;2023-11-21T03:38:36;32.97;;;11.27;;
81351;SDS011;70809;52.184;13.422;2023-11-21T03:39:38;31.70;;;11.43;;
81351;SDS011;70809;52.184;13.422;2023-11-21T03:40:42;30.45;;;10.45;;
81351;SDS011;70809;52.184;13.422;2023-11-21T03:41:44;21.73;;;9.63;;
81351;SDS011;70809;52.184;13.422;2023-11-21T03:42:45;30.25;;;9.75;;
81351;SDS011;70809;52.184;13.422;2023-11-21T03:43:47;25.75;;;9.02;;
81351;SDS011;70809;52.184;13.422;2023-11-21T03:44:49;26.40;;;9.63;;
81351;SDS011;70809;52.184;13.422;2023-11-21T03:45:51;35.85;;;10.35;;
81351;SDS011;70809;52.184;13.422;2023-11-21T03:46:53;34.92;;;10.80;;
81351;SDS011;70809;52.184;13.422;2023-11-21T03:47:55;33.05;;;11.38;;
81351;SDS011;70809;52.184;13.422;2023-11-21T03:48:57;33.13;;;10.45;;
81351;SDS011;70809;52.184;13.422;2023-11-21T03:49:58;25.02;;;8.68;;
81351;SDS011;70809;52.184;13.422;2023-11-21T03:51:00;19.80;;;8.65;;
81351;SDS011;70809;52.184;13.422;2023-11-21T03:52:02;30.80;;;8.95;;
81351;SDS011;70809;52.184;13.422;2023-11-21T03:54:07;26.13;;;8.38;;
81351;SDS011;70809;52.184;13.422;2023-11-21T03:55:16;24.60;;;8.30;;
81351;SDS011;70809;52.184;13.422;2023-11-21T03:56:19;25.00;;;8.77;;
81351;SDS011;70809;52.184;13.422;2023-11-21T03:57:21;30.88;;;9.70;;
81351;SDS011;70809;52.184;13.422;2023-11-21T03:58:23;27.90;;;8.57;;
81351;SDS011;70809;52.184;13.422;2023-11-21T03:59:25;22.35;;;8.20;;
81351;SDS011;70809;52.184;13.422;2023-11-21T04:00:27;28.20;;;8.25;;
81351;SDS011;70809;52.184;13.422;2023-11-21T04:01:29;22.13;;;8.18;;
81351;SDS011;70809;52.184;13.422;2023-11-21T04:02:31;18.00;;;7.80;;
81351;SDS011;70809;52.184;13.422;2023-11-21T04:03:32;24.27;;;8.50;;
81351;SDS011;70809;52.184;13.422;2023-11-21T04:04:35;21.75;;;8.50;;
81351;SDS011;70809;52.184;13.422;2023-11-21T04:05:37;23.17;;;8.50;;
81351;SDS011;70809;52.184;13.422;2023-11-21T04:06:41;19.73;;;8.13;;
81351;SDS011;70809;52.184;13.422;2023-11-21T04:07:43;16.85;;;7.18;;
81351;SDS011;70809;52.184;13.422;2023-11-21T04:08:45;20.00;;;7.70;;
81351;SDS011;70809;52.184;13.422;2023-11-21T04:09:50;21.50;;;8.13;;
81351;SDS011;70809;52.184;13.422;2023-11-21T04:10:51;25.98;;;8.73;;
81351;SDS011;70809;52.184;13.422;2023-11-21T04:11:54;22.23;;;8.02;;
81351;SDS011;70809;52.184;13.422;2023-11-21T04:12:56;24.60;;;9.05;;
81351;SDS011;70809;52.184;13.422;2023-11-21T04:13:59;21.35;;;8.43;;
81351;SDS011;70809;52.184;13.422;2023-11-21T04:15:01;23.08;;;9.35;;
81351;SDS011;70809;52.184;13.422;2023-11-21T04:16:03;23.02;;;8.52;;
81351;SDS011;70809;52.184;13.422;2023-11-21T04:17:05;26.35;;;8.90;;
81351;SDS011;70809;52.184;13.422;2023-11-21T04:18:10;28.02;;;9.07;;
81351;SDS011;70809;52.184;13.422;2023-11-21T04:19:12;23.48;;;9.55;;
81351;SDS011;70809;52.184;13.422;2023-11-21T04:20:14;23.30;;;8.82;;
81351;SDS011;70809;52.184;13.422;2023-11-21T04:21:16;28.83;;;9.90;;
81351;SDS011;70809;52.184;13.422;2023-11-21T04:22:18;27.15;;;9.18;;
81351;SDS011;70809;52.184;13.422;2023-11-21T04:23:19;21.60;;;8.90;;
81351;SDS011;70809;52.184;13.422;2023-11-21T04:24:23;30.27;;;9.90;;
81351;SDS011;70809;52.184;13.422;2023-11-21T04:25:25;29.70;;;10.27;;
81351;SDS011;70809;52.184;13.422;2023-11-21T04:26:27;25.73;;;8.70;;
81351;SDS011;70809;52.184;13.422;2023-11-21T04:27:30;23.48;;;8.27;;
81351;SDS011;70809;52.184;13.422;2023-11-21T04:28:32;20.25;;;8.45;;
81351;SDS011;70809;52.184;13.422;2023-11-21T04:29:34;20.17;;;8.40;;
81351;SDS011;70809;52.184;13.422;2023-11-21T04:30:35;25.55;;;9.57;;
81351;SDS011;70809;52.184;13.422;2023-11-21T04:31:37;29.48;;;9.30;;
81351;SDS011;70809;52.184;13.422;2023-11-21T04:32:39;20.50;;;7.93;;
81351;SDS011;70809;52.184;13.422;2023-11-21T04:33:42;21.92;;;8.73;;
81351;SDS011;70809;52.184;13.422;2023-11-21T04:34:43;24.55;;;9.05;;
81351;SDS011;70809;52.184;13.422;2023-11-21T04:35:45;28.60;;;9.60;;
81351;SDS011;70809;52.184;13.422;2023-11-21T04:36:47;26.00;;;8.75;;
81351;SDS011;70809;52.184;13.422;2023-11-21T04:37:49;26.75;;;9.65;;
81351;SDS011;70809;52.184;13.422;2023-11-21T04:38:51;29.40;;;10.00;;
81351;SDS011;70809;52.184;13.422;2023-11-21T04:39:53;29.60;;;9.75;;
81351;SDS011;70809;52.184;13.422;2023-11-21T04:40:55;23.27;;;9.18;;
81351;SDS011;70809;52.184;13.422;2023-11-21T04:41:56;21.20;;;8.77;;
81351;SDS011;70809;52.184;13.422;2023-11-21T04:43:00;32.53;;;10.57;;
81351;SDS011;70809;52.184;13.422;2023-11-21T04:44:01;26.38;;;9.80;;
81351;SDS011;70809;52.184;13.422;2023-11-21T04:45:04;22.40;;;9.07;;
81351;SDS011;70809;52.184;13.422;2023-11-21T04:46:06;23.30;;;9.23;;
81351;SDS011;70809;52.184;13.422;2023-11-21T04:47:08;28.67;;;9.93;;
81351;SDS011;70809;52.184;13.422;2023-11-21T04:48:10;21.38;;;8.73;;
81351;SDS011;70809;52.184;13.422;2023-11-21T04:49:12;26.77;;;9.30;;
81351;SDS011;70809;52.184;13.422;2023-11-21T04:50:17;23.48;;;8.98;;
81351;SDS011;70809;52.184;13.422;2023-11-21T04:51:19;21.27;;;8.23;;
81351;SDS011;70809;52.184;13.422;2023-11-21T04:52:21;21.13;;;8.77;;
81351;SDS011;70809;52.184;13.422;2023-11-21T04:53:23;22.98;;;9.48;;
81351;SDS011;70809;52.184;13.422;2023-11-21T04:54:26;19.40;;;8.25;;
81351;SDS011;70809;52.184;13.422;2023-11-21T04:55:29;20.73;;;8.52;;
81351;SDS011;70809;52.184;13.422;2023-11-21T04:56:31;21.65;;;8.73;;
81351;SDS011;70809;52.184;13.422;2023-11-21T04:57:33;23.30;;;9.15;;
81351;SDS011;70809;52.184;13.422;2023-11-21T04:58:36;20.58;;;8.68;;
81351;SDS011;70809;52.184;13.422;2023-11-21T04:59:37;24.45;;;9.18;;
81351;SDS011;70809;52.184;13.422;2023-11-21T05:00:39;18.73;;;7.93;;
81351;SDS011;70809;52.184;13.422;2023-11-21T05:01:41;20.77;;;9.45;;
81351;SDS011;70809;52.184;13.422;2023-11-21T05:02:46;19.60;;;8.45;;
81351;SDS011;70809;52.184;13.422;2023-11-21T05:03:51;19.33;;;8.05;;
81351;SDS011;70809;52.184;13.422;2023-11-21T05:04:55;25.85;;;8.85;;
81351;SDS011;70809;52.184;13.422;2023-11-21T05:05:59;18.15;;;8.00;;
81351;SDS011;70809;52.184;13.422;2023-11-21T05:07:01;25.63;;;9.48;;
81351;SDS011;70809;52.184;13.422;2023-11-21T05:08:03;23.25;;;8.85;;
81351;SDS011;70809;52.184;13.422;2023-11-21T05:09:08;16.15;;;8.27;;
81351;SDS011;70809;52.184;13.422;2023-11-21T05:10:15;17.77;;;8.23;;
81351;SDS011;70809;52.184;13.422;2023-11-21T05:11:24;20.80;;;8.57;;
81351;SDS011;70809;52.184;13.422;2023-11-21T05:12:26;21.92;;;8.45;;
81351;SDS011;70809;52.184;13.422;2023-11-21T05:13:29;17.70;;;8.25;;
81351;SDS011;70809;52.184;13.422;2023-11-21T05:14:32;17.15;;;6.95;;
81351;SDS011;70809;52.184;13.422;2023-11-21T05:15:34;17.63;;;8.77;;
81351;SDS011;70809;52.184;13.422;2023-11-21T05:16:36;19.35;;;8.60;;
81351;SDS011;70809;52.184;13.422;2023-11-21T05:17:39;18.90;;;7.80;;
81351;SDS011;70809;52.184;13.422;2023-11-21T05:18:42;17.65;;;7.15;;
81351;SDS011;70809;52.184;13.422;2023-11-21T05:19:45;13.63;;;6.72;;
81351;SDS011;70809;52.184;13.422;2023-11-21T05:20:50;14.25;;;6.82;;
81351;SDS011;70809;52.184;13.422;2023-11-21T05:21:55;12.45;;;6.20;;
81351;SDS011;70809;52.184;13.422;2023-11-21T05:22:58;14.68;;;6.40;;
81351;SDS011;70809;52.184;13.422;2023-11-21T05:24:00;14.55;;;6.30;;
81351;SDS011;70809;52.184;13.422;2023-11-21T05:25:02;14.07;;;6.30;;
81351;SDS011;70809;52.184;13.422;2023-11-21T05:26:04;17.58;;;7.57;;
81351;SDS011;70809;52.184;13.422;2023-11-21T05:27:07;17.00;;;6.07;;
81351;SDS011;70809;52.184;13.422;2023-11-21T05:28:09;17.90;;;7.50;;
81351;SDS011;70809;52.184;13.422;2023-11-21T05:29:11;12.05;;;6.18;;
81351;SDS011;70809;52.184;13.422;2023-11-21T05:30:14;14.07;;;7.03;;
81351;SDS011;70809;52.184;13.422;2023-11-21T05:31:16;13.15;;;6.13;;
81351;SDS011;70809;52.184;13.422;2023-11-21T05:32:18;12.10;;;5.85;;
81351;SDS011;70809;52.184;13.422;2023-11-21T05:33:20;12.40;;;5.93;;
81351;SDS011;70809;52.184;13.422;2023-11-21T05:34:22;11.45;;;5.85;;
81351;SDS011;70809;52.184;13.422;2023-11-21T05:35:23;13.90;;;6.25;;
81351;SDS011;70809;52.184;13.422;2023-11-21T05:36:25;13.30;;;6.30;;
81351;SDS011;70809;52.184;13.422;2023-11-21T05:37:27;12.27;;;6.65;;
81351;SDS011;70809;52.184;13.422;2023-11-21T05:38:29;13.38;;;6.10;;
81351;SDS011;70809;52.184;13.422;2023-11-21T05:39:31;11.45;;;6.30;;
81351;SDS011;70809;52.184;13.422;2023-11-21T05:40:33;13.40;;;6.32;;
81351;SDS011;70809;52.184;13.422;2023-11-21T05:41:34;10.93;;;5.45;;
81351;SDS011;70809;52.184;13.422;2023-11-21T05:42:36;13.55;;;6.97;;
81351;SDS011;70809;52.184;13.422;2023-11-21T05:43:38;10.73;;;5.55;;
81351;SDS011;70809;52.184;13.422;2023-11-21T05:44:41;13.18;;;6.43;;
81351;SDS011;70809;52.184;13.422;2023-11-21T05:45:45;14.43;;;6.38;;
81351;SDS011;70809;52.184;13.422;2023-11-21T05:46:47;15.52;;;6.93;;
81351;SDS011;70809;52.184;13.422;2023-11-21T05:47:49;13.13;;;6.13;;
81351;SDS011;70809;52.184;13.422;2023-11-21T05:48:54;10.82;;;5.47;;
81351;SDS011;70809;52.184;13.422;2023-11-21T05:49:56;14.60;;;6.22;;
81351;SDS011;70809;52.184;13.422;2023-11-21T05:50:58;10.82;;;5.50;;
81351;SDS011;70809;52.184;13.422;2023-11-21T05:52:00;9.85;;;5.30;;
81351;SDS011;70809;52.184;13.422;2023-11-21T05:53:03;11.68;;;5.68;;
81351;SDS011;70809;52.184;13.422;2023-11-21T05:54:05;10.88;;;5.25;;
81351;SDS011;70809;52.184;13.422;2023-11-21T05:55:07;11.05;;;5.50;;
81351;SDS011;70809;52.184;13.422;2023-11-21T05:56:09;10.93;;;5.65;;
81351;SDS011;70809;52.184;13.422;2023-11-21T05:57:11;11.40;;;5.40;;
81351;SDS011;70809;52.184;13.422;2023-11-21T05:58:13;12.85;;;6.18;;
81351;SDS011;70809;52.184;13.422;2023-11-21T05:59:15;10.63;;;5.47;;
81351;SDS011;70809;52.184;13.422;2023-11-21T06:00:17;10.77;;;5.43;;
81351;SDS011;70809;52.184;13.422;2023-11-21T06:01:20;10.65;;;5.00;;
81351;SDS011;70809;52.184;13.422;2023-11-21T06:02:22;9.68;;;5.55;;
81351;SDS011;70809;52.184;13.422;2023-11-21T06:03:24;15.20;;;4.85;;
81351;SDS011;70809;52.184;13.422;2023-11-21T06:04:26;10.60;;;4.95;;